Portada
METAR-TAF:

METAR-TAF

Aeropuertos :

Gafsa, Túnez

latitud: 34-25N, longitud: 008-49E, altitud: 313 m

Observación

El informe se hizo hace 12 minutos, a las 00:00 UTC
Viento 7 kt del norte-noreste, variando entre norte y este-noreste
Temperatura 9°C
Humedad 46%
Presión 1026 hPa
Visibilidad 10 km o más
sin nubes por debajo de 1500 m y sin presencia de cumulonimbus.

METAR: DTTF 210000Z 02007KT 350V070 CAVOK 09/M02 Q1026 NOSIG

Hora: 01:12 (00:12 UTC)

Pronóstico

El informe se hizo hace 3 horas y 12 minutos, a las 21:00 UTC
Pronóstico válido del 20 a las 22 UTC al 21 a las 07 UTC
Viento 3 kt del sur-suroeste
Visibilidad 10 km o más
sin nubes por debajo de 1500 m y sin presencia de cumulonimbus.
Evolucionando progresivamente
del 21 a las 01 UTC al 21 a las 03 UTC
Viento 3 kt con dirección variable

TAF: DTTF 202100Z 2022/2107 21003KT CAVOK BECMG 2101/2103 VRB03KT

Observaciones y pronósticos meteorológicos de más de 4000 aeropuertos (mensajes METAR y TAF).

Los puntos amarillos y rojos representan las estaciones disponibles.

Ponga el ratón en el punto deseado para ver el nombre de la estación.

Haga clic para ver las observaciones y los pronósticos meteorológicos.

Para cambiar el mapa : haga clic en los botones verdes con una cruz de color negro para hacer un zoom, en el botón verde con un guión para alejar o en las flechas verdes para mapas adyacentes.


METAR-TAF: